createdAt,value
2019-02-21T00:02:39.408Z,45.77
2019-02-21T00:08:05.463Z,42.03
2019-02-21T00:10:33.887Z,45.13
2019-02-21T00:13:21.666Z,42.40
2019-02-21T00:15:50.077Z,55.70
2019-02-21T00:21:58.540Z,41.83
2019-02-21T00:24:46.330Z,44.23
2019-02-21T00:30:08.112Z,47.50
2019-02-21T00:32:55.877Z,58.40
2019-02-21T00:35:24.325Z,53.07
2019-02-21T00:38:12.087Z,70.97
2019-02-21T00:40:59.949Z,47.17
2019-02-21T00:43:47.704Z,52.00
2019-02-21T00:46:35.520Z,40.43
2019-02-21T00:49:23.313Z,44.17
2019-02-21T00:52:11.067Z,41.80
2019-02-21T00:54:39.497Z,51.10
2019-02-21T00:57:27.306Z,44.93
2019-02-21T01:00:15.421Z,43.23
2019-02-21T01:03:03.186Z,51.33
2019-02-21T01:06:10.367Z,41.57
2019-02-21T01:08:58.143Z,47.90
2019-02-21T01:11:45.910Z,48.37
2019-02-21T01:14:33.700Z,49.60
2019-02-21T01:17:21.459Z,55.93
2019-02-21T01:20:09.310Z,45.00
2019-02-21T01:22:57.068Z,39.20
2019-02-21T01:25:44.865Z,44.60
2019-02-21T01:28:32.663Z,45.10
2019-02-21T01:31:20.449Z,46.07
2019-02-21T01:34:08.227Z,37.90
2019-02-21T01:39:30.761Z,46.20
2019-02-21T01:42:12.166Z,46.47
2019-02-21T01:44:52.717Z,66.33
2019-02-21T01:50:08.056Z,58.20
2019-02-21T01:55:46.599Z,59.73
2019-02-21T01:58:34.396Z,53.80
2019-02-21T02:01:22.253Z,50.50
2019-02-21T02:04:10.384Z,49.47
2019-02-21T02:06:58.152Z,56.53
2019-02-21T02:09:26.988Z,54.13
2019-02-21T02:12:14.762Z,50.77
2019-02-21T02:17:58.487Z,49.10
2019-02-21T02:20:46.284Z,41.77
2019-02-21T02:23:34.039Z,41.73
2019-02-21T02:26:21.812Z,43.67
2019-02-21T02:29:09.582Z,46.43
2019-02-21T02:31:57.373Z,49.13
2019-02-21T02:34:45.121Z,41.53
2019-02-21T02:37:29.150Z,52.87
2019-02-21T02:43:00.093Z,43.93
2019-02-21T02:45:41.536Z,40.90
2019-02-21T02:48:10.051Z,48.17
2019-02-21T02:50:38.472Z,56.00
2019-02-21T02:59:22.931Z,46.57
2019-02-21T03:02:10.796Z,46.90
2019-02-21T03:04:39.277Z,55.17
2019-02-21T03:10:41.425Z,38.90
2019-02-21T03:13:29.198Z,43.30
2019-02-21T03:16:16.998Z,40.77
2019-02-21T03:19:05.019Z,42.10
2019-02-21T03:21:52.800Z,39.97
2019-02-21T03:24:40.612Z,44.67
2019-02-21T03:27:28.376Z,46.63
2019-02-21T03:30:17.177Z,53.47
2019-02-21T03:33:04.977Z,58.23
2019-02-21T03:38:34.604Z,54.50
2019-02-21T03:41:15.271Z,63.90
2019-02-21T03:43:43.709Z,49.03
2019-02-21T03:46:31.502Z,48.20
2019-02-21T03:55:12.573Z,61.07
2019-02-21T03:58:00.596Z,48.53
2019-02-21T04:00:48.361Z,53.27
2019-02-21T04:03:36.140Z,45.83
2019-02-21T04:06:23.909Z,53.07
2019-02-21T04:09:11.678Z,43.40
2019-02-21T04:11:59.456Z,50.23
2019-02-21T04:14:47.238Z,49.20
2019-02-21T04:17:35.019Z,45.47
2019-02-21T04:20:22.782Z,45.37
2019-02-21T04:23:10.602Z,42.97
2019-02-21T04:25:58.440Z,53.17
2019-02-21T04:28:46.215Z,53.80
2019-02-21T04:34:24.764Z,57.17
2019-02-21T04:37:05.500Z,60.17
2019-02-21T04:39:33.940Z,52.23
2019-02-21T04:42:23.000Z,49.53
2019-02-21T04:45:10.761Z,63.47
2019-02-21T04:47:58.549Z,52.83
2019-02-21T04:50:46.316Z,55.30
2019-02-21T04:53:34.088Z,58.70
2019-02-21T04:56:21.849Z,70.80
2019-02-21T04:59:09.633Z,57.97
2019-02-21T05:01:57.424Z,65.77
2019-02-21T05:04:45.194Z,63.00
2019-02-21T05:07:32.969Z,57.97
2019-02-21T05:10:20.737Z,61.03
2019-02-21T05:13:08.535Z,64.00
2019-02-21T05:15:56.278Z,61.80
2019-02-21T05:18:44.066Z,67.33
2019-02-21T05:21:31.836Z,69.27
2019-02-21T05:24:19.617Z,63.30
2019-02-21T05:26:55.673Z,68.87
2019-02-21T05:29:43.459Z,64.80
2019-02-21T05:32:50.587Z,82.10
2019-02-21T05:35:33.417Z,63.93
2019-02-21T05:38:18.558Z,76.40
2019-02-21T05:43:50.036Z,73.03
2019-02-21T05:49:48.864Z,71.90
2019-02-21T05:58:43.526Z,69.77
2019-02-21T06:04:41.296Z,63.40
2019-02-21T06:07:11.359Z,60.83
2019-02-21T06:13:15.735Z,58.47
2019-02-21T06:16:43.074Z,72.03
2019-02-21T06:22:28.929Z,73.60
2019-02-21T06:25:18.371Z,72.80
2019-02-21T06:28:25.398Z,76.10
2019-02-21T06:34:07.734Z,62.57
2019-02-21T06:39:40.474Z,69.33
2019-02-21T06:42:22.394Z,65.13
2019-02-21T06:44:50.821Z,69.27
2019-02-21T06:47:38.589Z,65.43
2019-02-21T06:50:27.223Z,66.17
2019-02-21T06:52:56.524Z,68.57
2019-02-21T06:55:24.982Z,72.70
2019-02-21T06:58:12.731Z,82.40
2019-02-21T07:01:25.271Z,71.33
2019-02-21T07:03:31.143Z,62.73
2019-02-21T07:05:59.583Z,65.33
2019-02-21T07:08:28.029Z,68.33
2019-02-21T07:11:15.815Z,67.50
2019-02-21T07:14:03.644Z,63.80
2019-02-21T07:16:32.059Z,56.57
2019-02-21T07:19:19.896Z,67.83
2019-02-21T07:22:07.843Z,79.00
2019-02-21T07:27:52.303Z,60.57
2019-02-21T07:30:42.785Z,70.23
2019-02-21T07:33:10.419Z,58.87
2019-02-21T07:35:51.601Z,66.70
2019-02-21T07:41:18.878Z,57.50
2019-02-21T07:43:47.371Z,52.20
2019-02-21T07:46:35.144Z,50.37
2019-02-21T07:49:25.464Z,61.33
2019-02-21T07:52:12.440Z,54.30
2019-02-21T07:55:02.121Z,57.27
2019-02-21T07:57:49.740Z,50.03
2019-02-21T08:00:49.560Z,47.17
2019-02-21T08:03:31.975Z,41.23
2019-02-21T08:06:16.568Z,42.80
2019-02-21T08:14:35.041Z,30.13
2019-02-21T08:17:22.818Z,29.50
2019-02-21T08:20:11.472Z,22.83
2019-02-21T08:22:59.249Z,24.60
2019-02-21T08:25:47.016Z,23.63
2019-02-21T08:28:34.808Z,28.43
2019-02-21T08:31:22.593Z,26.23
2019-02-21T08:37:14.801Z,21.60
2019-02-21T08:39:55.787Z,20.13
2019-02-21T08:42:36.794Z,21.70
2019-02-21T08:48:07.421Z,24.17
2019-02-21T08:53:34.549Z,24.70
2019-02-21T08:58:59.620Z,20.73
2019-02-21T09:04:27.941Z,21.20
2019-02-21T09:07:09.341Z,24.17
2019-02-21T09:12:34.921Z,23.43
2019-02-21T09:15:15.929Z,23.43
2019-02-21T09:18:00.075Z,24.50
2019-02-21T09:20:40.282Z,26.57
2019-02-21T09:23:21.394Z,23.67
2019-02-21T09:26:01.635Z,21.33
2019-02-21T09:28:42.530Z,25.80
2019-02-21T09:34:21.114Z,23.03
2019-02-21T09:39:41.955Z,36.43
2019-02-21T09:42:10.368Z,34.80
2019-02-21T09:44:58.516Z,37.33
2019-02-21T09:47:46.278Z,35.03
2019-02-21T09:50:14.969Z,29.80
2019-02-21T09:52:43.384Z,27.53
2019-02-21T09:58:21.933Z,29.33
2019-02-21T10:03:45.127Z,26.87
2019-02-21T10:06:52.230Z,25.60
2019-02-21T10:10:00.909Z,29.70
2019-02-21T10:12:49.012Z,26.50
2019-02-21T10:15:36.776Z,34.13
2019-02-21T10:18:24.564Z,28.80
2019-02-21T10:21:12.338Z,28.17
2019-02-21T10:24:00.101Z,29.80
2019-02-21T10:26:47.872Z,28.20
2019-02-21T10:29:35.680Z,26.40
2019-02-21T10:32:23.442Z,30.53
2019-02-21T10:35:11.273Z,26.80
2019-02-21T10:37:51.947Z,32.27
2019-02-21T10:40:52.168Z,29.67
2019-02-21T10:54:53.791Z,24.27
2019-02-21T10:57:34.434Z,21.53
2019-02-21T11:00:15.224Z,24.07
2019-02-21T11:05:38.514Z,22.50
2019-02-21T11:08:19.634Z,21.37
2019-02-21T11:11:00.652Z,23.43
2019-02-21T11:13:41.565Z,23.20
2019-02-21T11:16:21.868Z,26.70
2019-02-21T11:19:03.090Z,25.50
2019-02-21T11:27:22.208Z,23.40
2019-02-21T11:30:03.208Z,25.93
2019-02-21T11:32:43.800Z,23.53
2019-02-21T11:38:11.441Z,21.03
2019-02-21T11:43:38.424Z,22.60
2019-02-21T11:49:19.146Z,26.33
2019-02-21T11:52:09.622Z,22.23
2019-02-21T11:54:42.354Z,21.73
2019-02-21T11:57:24.901Z,21.63
2019-02-21T11:59:53.414Z,22.87
2019-02-21T12:02:41.168Z,23.20
2019-02-21T12:08:31.295Z,21.83
2019-02-21T12:11:38.392Z,19.10
2019-02-21T12:14:45.475Z,20.20
2019-02-21T12:17:33.284Z,17.13
2019-02-21T12:20:40.408Z,22.53
2019-02-21T12:23:28.160Z,18.70
2019-02-21T12:26:16.113Z,17.87
2019-02-21T12:29:04.155Z,19.67
2019-02-21T12:31:32.635Z,18.37
2019-02-21T12:34:20.375Z,18.07
2019-02-21T12:37:01.082Z,18.20
2019-02-21T12:45:12.856Z,19.90
2019-02-21T12:47:54.317Z,22.63
2019-02-21T12:53:22.594Z,19.10
2019-02-21T12:56:03.017Z,18.70
2019-02-21T12:58:45.321Z,15.07
2019-02-21T13:01:25.745Z,14.53
2019-02-21T13:06:54.068Z,16.00
2019-02-21T13:12:16.807Z,17.47
2019-02-21T13:14:57.690Z,14.23
2019-02-21T13:17:38.572Z,17.30
2019-02-21T13:23:03.800Z,11.73
2019-02-21T13:34:08.192Z,13.43
2019-02-21T13:36:48.679Z,14.87
2019-02-21T13:39:29.801Z,12.23
2019-02-21T13:42:10.507Z,16.63
2019-02-21T13:44:39.037Z,14.60
2019-02-21T13:47:07.456Z,13.23
2019-02-21T13:49:55.236Z,18.23
2019-02-21T13:52:43.028Z,19.23
2019-02-21T13:55:30.776Z,16.73
2019-02-21T13:58:18.568Z,16.57
2019-02-21T14:01:06.320Z,16.00
2019-02-21T14:03:56.489Z,18.33
2019-02-21T14:06:43.600Z,19.97
2019-02-21T14:09:31.373Z,15.67
2019-02-21T14:12:19.207Z,18.27
2019-02-21T14:15:27.741Z,20.30
2019-02-21T14:18:15.534Z,16.70
2019-02-21T14:21:03.488Z,17.63
2019-02-21T14:23:51.317Z,16.07
2019-02-21T14:26:39.129Z,15.57
2019-02-21T14:32:21.609Z,16.77
2019-02-21T14:35:30.169Z,18.70
2019-02-21T14:40:55.124Z,15.10
2019-02-21T14:43:35.907Z,17.53
2019-02-21T14:46:16.837Z,16.13
2019-02-21T14:48:57.797Z,15.47
2019-02-21T14:51:38.512Z,17.47
2019-02-21T14:56:55.958Z,18.80
2019-02-21T14:59:24.396Z,18.40
2019-02-21T15:02:12.149Z,16.13
2019-02-21T15:04:59.900Z,20.77
2019-02-21T15:07:47.844Z,19.00
2019-02-21T15:10:35.603Z,23.67
2019-02-21T15:16:03.123Z,17.03
2019-02-21T15:18:50.894Z,20.57
2019-02-21T15:21:19.365Z,21.53
2019-02-21T15:24:07.120Z,17.80
2019-02-21T15:26:54.888Z,20.97
2019-02-21T15:29:42.665Z,20.97
2019-02-21T15:32:30.457Z,18.27
2019-02-21T15:34:58.939Z,19.13
2019-02-21T15:37:46.719Z,18.87
2019-02-21T15:40:34.517Z,15.77
2019-02-21T15:43:22.340Z,16.00
2019-02-21T15:49:02.914Z,16.03
2019-02-21T15:51:43.427Z,21.03
2019-02-21T15:54:23.966Z,17.23
2019-02-21T15:57:04.832Z,16.30
2019-02-21T15:59:45.973Z,19.47
2019-02-21T16:05:17.431Z,17.33
2019-02-21T16:07:58.319Z,20.63
2019-02-21T16:10:39.929Z,19.80
2019-02-21T16:13:21.418Z,17.50
2019-02-21T16:18:46.238Z,16.33
2019-02-21T16:21:27.385Z,20.13
2019-02-21T16:24:08.787Z,16.77
2019-02-21T16:29:32.419Z,17.03
2019-02-21T16:32:13.716Z,18.07
2019-02-21T16:34:42.455Z,19.80
2019-02-21T16:37:30.235Z,14.23
2019-02-21T16:40:00.855Z,15.67
2019-02-21T16:42:48.181Z,15.53
2019-02-21T16:45:43.750Z,16.20
2019-02-21T16:48:27.050Z,21.47
2019-02-21T16:51:07.997Z,18.30
2019-02-21T16:53:48.568Z,17.03
2019-02-21T16:59:01.443Z,17.23
2019-02-21T17:01:30.075Z,19.37
2019-02-21T17:03:58.589Z,15.90
2019-02-21T17:09:37.547Z,17.50
2019-02-21T17:12:25.316Z,16.00
2019-02-21T17:18:08.310Z,18.27
2019-02-21T17:20:56.145Z,17.43
2019-02-21T17:23:43.923Z,13.80
2019-02-21T17:29:24.632Z,15.57
2019-02-21T17:32:12.538Z,19.63
2019-02-21T17:35:14.803Z,17.50
2019-02-21T17:37:49.825Z,21.73
2019-02-21T17:40:38.550Z,23.97
2019-02-21T17:43:26.453Z,22.53
2019-02-21T17:49:08.978Z,28.77
2019-02-21T17:51:49.518Z,19.93
2019-02-21T17:54:18.624Z,26.03
2019-02-21T17:57:06.459Z,20.30
2019-02-21T18:00:13.620Z,24.60
2019-02-21T18:03:01.380Z,22.27
2019-02-21T18:05:49.405Z,22.43
2019-02-21T18:08:38.890Z,20.67
2019-02-21T18:11:26.648Z,22.03
2019-02-21T18:14:14.403Z,20.47
2019-02-21T18:17:02.173Z,19.37
2019-02-21T18:22:40.728Z,20.63
2019-02-21T18:25:47.807Z,20.50
2019-02-21T18:28:36.290Z,21.57
2019-02-21T18:31:25.250Z,23.57
2019-02-21T18:34:13.002Z,20.63
2019-02-21T18:36:41.444Z,20.20
2019-02-21T18:39:29.192Z,19.60
2019-02-21T18:45:17.897Z,22.37
2019-02-21T18:48:05.716Z,19.43
2019-02-21T18:50:53.480Z,22.73
2019-02-21T18:53:35.327Z,26.00
2019-02-21T19:04:41.636Z,21.97
2019-02-21T19:07:22.635Z,25.83
2019-02-21T19:13:07.470Z,30.10
2019-02-21T19:15:46.832Z,26.73
2019-02-21T19:18:27.819Z,29.80
2019-02-21T19:21:08.944Z,29.67
2019-02-21T19:23:49.762Z,39.27
2019-02-21T19:26:30.603Z,36.30
2019-02-21T19:29:15.729Z,30.13
2019-02-21T19:37:34.716Z,29.57
2019-02-21T19:40:15.728Z,29.40
2019-02-21T19:42:56.138Z,28.93
2019-02-21T19:45:37.260Z,26.53
2019-02-21T19:48:18.305Z,26.20
2019-02-21T19:53:44.289Z,29.83
2019-02-21T19:56:25.273Z,27.23
2019-02-21T19:59:07.530Z,26.00
2019-02-21T20:04:33.015Z,23.07
2019-02-21T20:07:13.826Z,25.13
2019-02-21T20:09:54.831Z,23.33
2019-02-21T20:12:35.709Z,23.97
2019-02-21T20:15:16.534Z,28.33
2019-02-21T20:20:39.724Z,26.17
2019-02-21T20:23:20.660Z,22.57
2019-02-21T20:26:01.517Z,22.97
2019-02-21T20:28:42.310Z,22.93
2019-02-21T20:31:23.209Z,21.90
2019-02-21T20:36:51.485Z,23.80
2019-02-21T20:39:32.472Z,22.57
2019-02-21T20:42:15.911Z,22.17
2019-02-21T20:44:57.389Z,21.07
2019-02-21T20:50:34.217Z,22.87
2019-02-21T20:53:14.908Z,21.83
2019-02-21T20:55:56.000Z,24.43
2019-02-21T20:58:36.745Z,20.80
2019-02-21T21:01:17.832Z,19.00
2019-02-21T21:03:59.533Z,16.97
2019-02-21T21:06:40.692Z,18.50
2019-02-21T21:09:21.772Z,21.00
2019-02-21T21:12:02.604Z,19.23
2019-02-21T21:14:42.828Z,18.43
2019-02-21T21:17:23.903Z,18.50
2019-02-21T21:19:52.364Z,21.00
2019-02-21T21:22:40.223Z,22.67
2019-02-21T21:25:28.011Z,23.87
2019-02-21T21:28:15.814Z,21.23
2019-02-21T21:31:03.603Z,30.60
2019-02-21T21:33:51.400Z,25.47
2019-02-21T21:36:39.280Z,19.80
2019-02-21T21:39:07.729Z,26.17
2019-02-21T21:41:55.712Z,20.97
2019-02-21T21:44:43.507Z,24.77
2019-02-21T21:47:31.335Z,22.83
2019-02-21T21:50:19.596Z,21.17
2019-02-21T21:55:51.386Z,26.23
2019-02-21T21:58:34.094Z,24.63
2019-02-21T22:04:05.712Z,32.40
2019-02-21T22:06:48.257Z,27.30
2019-02-21T22:12:21.759Z,25.57
2019-02-21T22:20:38.324Z,28.20
2019-02-21T22:29:03.901Z,28.23
2019-02-21T22:31:51.684Z,25.63
2019-02-21T22:34:39.447Z,25.60
2019-02-21T22:37:27.252Z,22.90
2019-02-21T22:43:38.697Z,23.90
2019-02-21T22:46:07.232Z,22.07
2019-02-21T22:48:55.013Z,27.50
2019-02-21T22:51:35.281Z,27.43
2019-02-21T23:02:38.088Z,28.77
2019-02-21T23:11:40.704Z,27.67
2019-02-21T23:17:28.385Z,30.27
2019-02-21T23:23:13.348Z,31.03
2019-02-21T23:26:01.142Z,28.07
2019-02-21T23:28:29.636Z,30.13
2019-02-21T23:31:17.430Z,29.43
2019-02-21T23:39:48.115Z,27.47
2019-02-21T23:42:28.862Z,25.77
2019-02-21T23:45:09.868Z,35.37
2019-02-21T23:47:49.047Z,28.07
2019-02-21T23:53:25.173Z,27.30
2019-02-21T23:56:12.943Z,29.37
2019-02-21T23:59:00.713Z,28.50
